Brunswick Golden Isles Airport
KBQK : now visible

Airfield :











YOU CAN JOIN US ON...

 
LOGIN :

Register | Disclaimer

   EN    FR    IT 

 









Legend :    VFR   Marginal VFR   IFR   Intensive IFR   Very Intensive IFR
Visi :
Ceiling :
>= 8 km
>= 3000ft
5 to 8 km
1000 to 3000 ft
1500m to 5 km
500 to 1000 ft
800 to 1500m
200 to 500 ft
< 800m
< 200 ft
Symbols :   Thunderstorms  Fog  Heavy snow  Heavy precipitations  Wind > 20 kt






- Airport Elevation : 26 ft
- IATA code : BQK


KBQK - Brunswick Golden Isles

CURRENT METAR :
  • 281135Z AUTO 24005KT 10SM CLR 10/08 A3000 RMK AO2 T01020083

EXPIRED METARs :
  • 281115Z AUTO 24006KT 10SM CLR 11/09 A2999 RMK AO2 T01110086
  • 281055Z AUTO 25007KT 10SM CLR 12/09 A2999 RMK AO2 T01150086
  • 281035Z AUTO 26007KT 10SM CLR 12/09 A2998 RMK AO2 T01150088
  • 281015Z AUTO 25006KT 10SM CLR 11/09 A2998 RMK AO2 T01140087
  • 280955Z AUTO 25007KT 10SM CLR 12/09 A2997 RMK AO2 T01160088
  • 280935Z AUTO 25008KT 10SM CLR 12/09 A2997 RMK AO2 T01180089
  • 280915Z AUTO 24007KT 10SM CLR 12/09 A2997 RMK AO2 T01180089
  • 280855Z AUTO 25008KT 10SM CLR 12/09 A2997 RMK AO2 T01190088

TAF N/A
KZJX FIR / North America



MET'MAP, your aeronautical weather chart ! - Copyright ORBIFLY December 2007 - Disclaimer

ORBIFLY MET'MAP TEAM :

Programming & Development : Alexandra Zaïnal
Original concept : Baudouin d'Aumeries
Technical & hardware support : Manuel Goepfert
Assistance : Marc-Olivier Méhu




SOURCES & CREDITS :

   NOAA       Earth
Advisory